Nampa, Idaho
Current Conditions -  °F | °C
As of 4:15 PM on Monday 22 Dec 2014 (Local Time) from KMAN Reporting Station
Few Clouds Few Clouds  
Wind Chill: 39°   Ceiling: Unl
Heat Index: 45°   Visibility: 10mi
Dew Point: 27°   Wind: 12mph
Humidity: 49%   Direction: 330°NNW
Pressure: 30.24"   Gusts: 21mph
Location:  43.58°N, 116.57°W
Report Text: KMAN 222315Z AUTO 33010G18KT 10SM FEW120 07/M03 A3024 RMK AO1
Loading
Personal Weather Stations






























Interactive Weather Map New forecast layout! Learn more

10-Day Weather Forecast

Advertisements
Track Severe Weather on mobile